sensor_id;sensor_type;location;lat;lon;timestamp;P1;durP1;ratioP1;P2;durP2;ratioP2
64682;SDS011;51107;47.652;19.016;2023-05-07T00:00:47;1.67;;;1.10;;
64682;SDS011;51107;47.652;19.016;2023-05-07T00:03:16;2.60;;;1.33;;
64682;SDS011;51107;47.652;19.016;2023-05-07T00:05:44;2.55;;;1.42;;
64682;SDS011;51107;47.652;19.016;2023-05-07T00:08:14;1.90;;;1.58;;
64682;SDS011;51107;47.652;19.016;2023-05-07T00:10:42;1.73;;;1.10;;
64682;SDS011;51107;47.652;19.016;2023-05-07T00:13:11;1.67;;;1.23;;
64682;SDS011;51107;47.652;19.016;2023-05-07T00:15:39;3.97;;;1.67;;
64682;SDS011;51107;47.652;19.016;2023-05-07T00:18:08;1.70;;;1.12;;
64682;SDS011;51107;47.652;19.016;2023-05-07T00:20:36;1.65;;;1.23;;
64682;SDS011;51107;47.652;19.016;2023-05-07T00:23:04;2.03;;;1.25;;
64682;SDS011;51107;47.652;19.016;2023-05-07T00:25:33;2.17;;;1.25;;
64682;SDS011;51107;47.652;19.016;2023-05-07T00:28:01;1.12;;;1.02;;
64682;SDS011;51107;47.652;19.016;2023-05-07T00:30:31;1.60;;;1.05;;
64682;SDS011;51107;47.652;19.016;2023-05-07T00:33:00;1.55;;;1.40;;
64682;SDS011;51107;47.652;19.016;2023-05-07T00:35:29;2.25;;;1.37;;
64682;SDS011;51107;47.652;19.016;2023-05-07T00:37:57;3.35;;;1.58;;
64682;SDS011;51107;47.652;19.016;2023-05-07T00:40:26;2.53;;;1.65;;
64682;SDS011;51107;47.652;19.016;2023-05-07T00:42:54;2.53;;;1.37;;
64682;SDS011;51107;47.652;19.016;2023-05-07T00:45:26;1.87;;;1.30;;
64682;SDS011;51107;47.652;19.016;2023-05-07T00:47:57;3.40;;;1.70;;
64682;SDS011;51107;47.652;19.016;2023-05-07T00:50:28;2.00;;;1.20;;
64682;SDS011;51107;47.652;19.016;2023-05-07T00:52:57;1.80;;;1.37;;
64682;SDS011;51107;47.652;19.016;2023-05-07T00:55:27;1.30;;;1.05;;
64682;SDS011;51107;47.652;19.016;2023-05-07T00:57:56;1.90;;;1.33;;
64682;SDS011;51107;47.652;19.016;2023-05-07T01:00:24;1.45;;;1.12;;
64682;SDS011;51107;47.652;19.016;2023-05-07T01:02:54;2.05;;;1.30;;
64682;SDS011;51107;47.652;19.016;2023-05-07T01:05:23;1.67;;;1.42;;
64682;SDS011;51107;47.652;19.016;2023-05-07T01:07:54;2.17;;;1.58;;
64682;SDS011;51107;47.652;19.016;2023-05-07T01:10:23;2.37;;;1.60;;
64682;SDS011;51107;47.652;19.016;2023-05-07T01:12:52;1.25;;;1.00;;
64682;SDS011;51107;47.652;19.016;2023-05-07T01:15:22;1.25;;;1.08;;
64682;SDS011;51107;47.652;19.016;2023-05-07T01:17:51;2.20;;;1.37;;
64682;SDS011;51107;47.652;19.016;2023-05-07T01:20:20;1.37;;;1.12;;
64682;SDS011;51107;47.652;19.016;2023-05-07T01:22:51;1.87;;;1.35;;
64682;SDS011;51107;47.652;19.016;2023-05-07T01:25:20;2.95;;;1.30;;
64682;SDS011;51107;47.652;19.016;2023-05-07T01:27:49;3.40;;;1.48;;
64682;SDS011;51107;47.652;19.016;2023-05-07T01:30:22;1.90;;;1.10;;
64682;SDS011;51107;47.652;19.016;2023-05-07T01:32:52;1.73;;;1.12;;
64682;SDS011;51107;47.652;19.016;2023-05-07T01:35:30;1.95;;;1.15;;
64682;SDS011;51107;47.652;19.016;2023-05-07T01:38:04;2.08;;;1.60;;
64682;SDS011;51107;47.652;19.016;2023-05-07T01:40:34;2.40;;;1.10;;
64682;SDS011;51107;47.652;19.016;2023-05-07T01:43:03;1.65;;;1.30;;
64682;SDS011;51107;47.652;19.016;2023-05-07T01:45:32;2.12;;;1.55;;
64682;SDS011;51107;47.652;19.016;2023-05-07T01:48:03;1.42;;;1.05;;
64682;SDS011;51107;47.652;19.016;2023-05-07T01:50:32;2.47;;;1.35;;
64682;SDS011;51107;47.652;19.016;2023-05-07T01:53:01;2.30;;;1.40;;
64682;SDS011;51107;47.652;19.016;2023-05-07T01:55:30;1.55;;;1.10;;
64682;SDS011;51107;47.652;19.016;2023-05-07T01:57:59;1.42;;;1.33;;
64682;SDS011;51107;47.652;19.016;2023-05-07T02:00:27;2.28;;;1.55;;
64682;SDS011;51107;47.652;19.016;2023-05-07T02:02:57;1.98;;;1.40;;
64682;SDS011;51107;47.652;19.016;2023-05-07T02:05:26;1.80;;;1.42;;
64682;SDS011;51107;47.652;19.016;2023-05-07T02:07:55;1.12;;;0.90;;
64682;SDS011;51107;47.652;19.016;2023-05-07T02:10:25;1.30;;;1.02;;
64682;SDS011;51107;47.652;19.016;2023-05-07T02:12:53;1.35;;;1.12;;
64682;SDS011;51107;47.652;19.016;2023-05-07T02:15:21;2.05;;;1.23;;
64682;SDS011;51107;47.652;19.016;2023-05-07T02:18:07;1.60;;;1.30;;
64682;SDS011;51107;47.652;19.016;2023-05-07T02:23:05;2.28;;;1.17;;
64682;SDS011;51107;47.652;19.016;2023-05-07T02:25:33;2.37;;;1.40;;
64682;SDS011;51107;47.652;19.016;2023-05-07T02:28:02;2.80;;;1.75;;
64682;SDS011;51107;47.652;19.016;2023-05-07T02:30:33;2.10;;;1.58;;
64682;SDS011;51107;47.652;19.016;2023-05-07T02:33:02;1.92;;;1.52;;
64682;SDS011;51107;47.652;19.016;2023-05-07T02:35:30;1.52;;;1.17;;
64682;SDS011;51107;47.652;19.016;2023-05-07T02:37:59;1.77;;;1.08;;
64682;SDS011;51107;47.652;19.016;2023-05-07T02:40:27;1.17;;;1.08;;
64682;SDS011;51107;47.652;19.016;2023-05-07T02:42:56;2.03;;;1.30;;
64682;SDS011;51107;47.652;19.016;2023-05-07T02:45:24;2.12;;;1.33;;
64682;SDS011;51107;47.652;19.016;2023-05-07T02:47:54;1.42;;;1.15;;
64682;SDS011;51107;47.652;19.016;2023-05-07T02:50:22;2.45;;;1.48;;
64682;SDS011;51107;47.652;19.016;2023-05-07T02:52:51;1.33;;;1.02;;
64682;SDS011;51107;47.652;19.016;2023-05-07T02:55:20;1.48;;;1.02;;
64682;SDS011;51107;47.652;19.016;2023-05-07T02:57:48;1.70;;;1.10;;
64682;SDS011;51107;47.652;19.016;2023-05-07T03:00:17;2.25;;;1.58;;
64682;SDS011;51107;47.652;19.016;2023-05-07T03:02:48;1.10;;;1.00;;
64682;SDS011;51107;47.652;19.016;2023-05-07T03:05:17;1.37;;;1.02;;
64682;SDS011;51107;47.652;19.016;2023-05-07T03:07:45;1.35;;;1.10;;
64682;SDS011;51107;47.652;19.016;2023-05-07T03:10:15;1.55;;;1.17;;
64682;SDS011;51107;47.652;19.016;2023-05-07T03:12:44;0.95;;;0.73;;
64682;SDS011;51107;47.652;19.016;2023-05-07T03:15:14;1.92;;;1.17;;
64682;SDS011;51107;47.652;19.016;2023-05-07T03:17:42;1.25;;;1.00;;
64682;SDS011;51107;47.652;19.016;2023-05-07T03:20:10;1.95;;;1.10;;
64682;SDS011;51107;47.652;19.016;2023-05-07T03:22:40;1.65;;;0.80;;
64682;SDS011;51107;47.652;19.016;2023-05-07T03:25:09;1.30;;;1.08;;
64682;SDS011;51107;47.652;19.016;2023-05-07T03:27:38;1.00;;;0.90;;
64682;SDS011;51107;47.652;19.016;2023-05-07T03:30:06;2.20;;;0.90;;
64682;SDS011;51107;47.652;19.016;2023-05-07T03:32:36;1.45;;;1.10;;
64682;SDS011;51107;47.652;19.016;2023-05-07T03:35:05;1.70;;;1.17;;
64682;SDS011;51107;47.652;19.016;2023-05-07T03:37:34;1.20;;;1.10;;
64682;SDS011;51107;47.652;19.016;2023-05-07T03:40:02;1.40;;;0.90;;
64682;SDS011;51107;47.652;19.016;2023-05-07T03:42:33;1.42;;;1.12;;
64682;SDS011;51107;47.652;19.016;2023-05-07T03:45:01;4.03;;;1.73;;
64682;SDS011;51107;47.652;19.016;2023-05-07T03:47:30;1.52;;;1.00;;
64682;SDS011;51107;47.652;19.016;2023-05-07T03:49:58;1.60;;;1.17;;
64682;SDS011;51107;47.652;19.016;2023-05-07T03:52:27;1.30;;;0.90;;
64682;SDS011;51107;47.652;19.016;2023-05-07T03:54:56;2.22;;;1.15;;
64682;SDS011;51107;47.652;19.016;2023-05-07T03:57:25;1.75;;;1.35;;
64682;SDS011;51107;47.652;19.016;2023-05-07T03:59:53;2.35;;;1.45;;
64682;SDS011;51107;47.652;19.016;2023-05-07T04:02:22;1.52;;;1.17;;
64682;SDS011;51107;47.652;19.016;2023-05-07T04:04:51;1.35;;;1.12;;
64682;SDS011;51107;47.652;19.016;2023-05-07T04:07:20;2.30;;;1.37;;
64682;SDS011;51107;47.652;19.016;2023-05-07T04:09:48;3.08;;;1.55;;
64682;SDS011;51107;47.652;19.016;2023-05-07T04:12:17;1.62;;;1.20;;
64682;SDS011;51107;47.652;19.016;2023-05-07T04:14:46;2.12;;;1.20;;
64682;SDS011;51107;47.652;19.016;2023-05-07T04:17:14;2.80;;;1.25;;
64682;SDS011;51107;47.652;19.016;2023-05-07T04:19:43;2.00;;;1.33;;
64682;SDS011;51107;47.652;19.016;2023-05-07T04:22:14;1.75;;;1.50;;
64682;SDS011;51107;47.652;19.016;2023-05-07T04:24:43;1.98;;;1.50;;
64682;SDS011;51107;47.652;19.016;2023-05-07T04:27:12;1.87;;;1.30;;
64682;SDS011;51107;47.652;19.016;2023-05-07T04:29:41;1.60;;;1.17;;
64682;SDS011;51107;47.652;19.016;2023-05-07T04:32:10;1.58;;;1.10;;
64682;SDS011;51107;47.652;19.016;2023-05-07T04:34:39;2.17;;;1.40;;
64682;SDS011;51107;47.652;19.016;2023-05-07T04:37:08;1.17;;;0.85;;
64682;SDS011;51107;47.652;19.016;2023-05-07T04:39:37;0.95;;;0.85;;
64682;SDS011;51107;47.652;19.016;2023-05-07T04:42:05;3.10;;;1.23;;
64682;SDS011;51107;47.652;19.016;2023-05-07T04:44:37;1.70;;;1.17;;
64682;SDS011;51107;47.652;19.016;2023-05-07T04:47:06;1.67;;;1.15;;
64682;SDS011;51107;47.652;19.016;2023-05-07T04:49:34;1.55;;;1.08;;
64682;SDS011;51107;47.652;19.016;2023-05-07T04:52:03;2.05;;;1.30;;
64682;SDS011;51107;47.652;19.016;2023-05-07T04:54:32;1.87;;;1.45;;
64682;SDS011;51107;47.652;19.016;2023-05-07T04:57:00;2.70;;;1.27;;
64682;SDS011;51107;47.652;19.016;2023-05-07T04:59:28;1.60;;;1.33;;
64682;SDS011;51107;47.652;19.016;2023-05-07T05:01:57;1.70;;;1.40;;
64682;SDS011;51107;47.652;19.016;2023-05-07T05:04:26;1.70;;;1.40;;
64682;SDS011;51107;47.652;19.016;2023-05-07T05:06:55;2.50;;;1.35;;
64682;SDS011;51107;47.652;19.016;2023-05-07T05:09:24;4.12;;;1.80;;
64682;SDS011;51107;47.652;19.016;2023-05-07T05:11:52;4.37;;;1.35;;
64682;SDS011;51107;47.652;19.016;2023-05-07T05:14:22;1.37;;;1.27;;
64682;SDS011;51107;47.652;19.016;2023-05-07T05:16:50;4.15;;;1.17;;
64682;SDS011;51107;47.652;19.016;2023-05-07T05:19:19;2.15;;;1.45;;
64682;SDS011;51107;47.652;19.016;2023-05-07T05:21:50;1.10;;;1.00;;
64682;SDS011;51107;47.652;19.016;2023-05-07T05:24:18;1.52;;;1.15;;
64682;SDS011;51107;47.652;19.016;2023-05-07T05:26:47;3.05;;;1.37;;
64682;SDS011;51107;47.652;19.016;2023-05-07T05:29:16;1.33;;;1.08;;
64682;SDS011;51107;47.652;19.016;2023-05-07T05:31:45;1.42;;;1.23;;
64682;SDS011;51107;47.652;19.016;2023-05-07T05:34:14;3.92;;;0.95;;
64682;SDS011;51107;47.652;19.016;2023-05-07T05:36:43;0.93;;;0.88;;
64682;SDS011;51107;47.652;19.016;2023-05-07T05:39:13;2.03;;;1.27;;
64682;SDS011;51107;47.652;19.016;2023-05-07T05:41:42;5.32;;;1.90;;
64682;SDS011;51107;47.652;19.016;2023-05-07T05:44:12;2.00;;;1.33;;
64682;SDS011;51107;47.652;19.016;2023-05-07T05:46:42;1.98;;;1.50;;
64682;SDS011;51107;47.652;19.016;2023-05-07T05:49:10;2.40;;;1.67;;
64682;SDS011;51107;47.652;19.016;2023-05-07T05:51:39;2.53;;;1.40;;
64682;SDS011;51107;47.652;19.016;2023-05-07T05:54:07;2.80;;;1.62;;
64682;SDS011;51107;47.652;19.016;2023-05-07T05:56:37;1.92;;;1.45;;
64682;SDS011;51107;47.652;19.016;2023-05-07T05:59:05;2.90;;;1.90;;
64682;SDS011;51107;47.652;19.016;2023-05-07T06:01:34;1.98;;;1.52;;
64682;SDS011;51107;47.652;19.016;2023-05-07T06:04:03;2.15;;;1.75;;
64682;SDS011;51107;47.652;19.016;2023-05-07T06:06:32;2.37;;;1.95;;
64682;SDS011;51107;47.652;19.016;2023-05-07T06:09:01;1.85;;;1.67;;
64682;SDS011;51107;47.652;19.016;2023-05-07T06:11:31;3.05;;;2.05;;
64682;SDS011;51107;47.652;19.016;2023-05-07T06:14:00;2.20;;;1.60;;
64682;SDS011;51107;47.652;19.016;2023-05-07T06:16:28;2.47;;;2.00;;
64682;SDS011;51107;47.652;19.016;2023-05-07T06:18:57;2.03;;;1.30;;
64682;SDS011;51107;47.652;19.016;2023-05-07T06:21:25;2.10;;;1.70;;
64682;SDS011;51107;47.652;19.016;2023-05-07T06:23:53;1.42;;;1.23;;
64682;SDS011;51107;47.652;19.016;2023-05-07T06:26:23;2.58;;;1.42;;
64682;SDS011;51107;47.652;19.016;2023-05-07T06:28:52;2.78;;;1.95;;
64682;SDS011;51107;47.652;19.016;2023-05-07T06:31:20;2.22;;;1.55;;
64682;SDS011;51107;47.652;19.016;2023-05-07T06:33:50;3.17;;;2.12;;
64682;SDS011;51107;47.652;19.016;2023-05-07T06:36:18;3.35;;;2.30;;
64682;SDS011;51107;47.652;19.016;2023-05-07T06:38:46;2.47;;;1.73;;
64682;SDS011;51107;47.652;19.016;2023-05-07T06:41:15;5.75;;;2.62;;
64682;SDS011;51107;47.652;19.016;2023-05-07T06:43:44;4.18;;;2.65;;
64682;SDS011;51107;47.652;19.016;2023-05-07T06:46:13;4.78;;;1.92;;
64682;SDS011;51107;47.652;19.016;2023-05-07T06:48:41;2.45;;;1.60;;
64682;SDS011;51107;47.652;19.016;2023-05-07T06:51:10;2.92;;;2.22;;
64682;SDS011;51107;47.652;19.016;2023-05-07T06:53:38;2.85;;;2.10;;
64682;SDS011;51107;47.652;19.016;2023-05-07T06:56:08;2.50;;;1.80;;
64682;SDS011;51107;47.652;19.016;2023-05-07T06:58:37;2.92;;;1.52;;
64682;SDS011;51107;47.652;19.016;2023-05-07T07:01:05;1.62;;;1.33;;
64682;SDS011;51107;47.652;19.016;2023-05-07T07:03:34;2.97;;;1.60;;
64682;SDS011;51107;47.652;19.016;2023-05-07T07:06:03;4.55;;;1.98;;
64682;SDS011;51107;47.652;19.016;2023-05-07T07:08:32;2.62;;;1.40;;
64682;SDS011;51107;47.652;19.016;2023-05-07T07:11:00;4.28;;;1.42;;
64682;SDS011;51107;47.652;19.016;2023-05-07T07:13:29;1.92;;;1.20;;
64682;SDS011;51107;47.652;19.016;2023-05-07T07:15:57;1.40;;;1.00;;
64682;SDS011;51107;47.652;19.016;2023-05-07T07:18:26;1.30;;;1.08;;
64682;SDS011;51107;47.652;19.016;2023-05-07T07:20:55;1.23;;;1.08;;
64682;SDS011;51107;47.652;19.016;2023-05-07T07:23:24;1.77;;;1.25;;
64682;SDS011;51107;47.652;19.016;2023-05-07T07:25:53;2.22;;;1.00;;
64682;SDS011;51107;47.652;19.016;2023-05-07T07:28:22;1.42;;;1.20;;
64682;SDS011;51107;47.652;19.016;2023-05-07T07:30:50;1.10;;;0.90;;
64682;SDS011;51107;47.652;19.016;2023-05-07T07:33:19;1.77;;;0.95;;
64682;SDS011;51107;47.652;19.016;2023-05-07T07:35:47;1.73;;;1.10;;
64682;SDS011;51107;47.652;19.016;2023-05-07T07:38:16;0.80;;;0.70;;
64682;SDS011;51107;47.652;19.016;2023-05-07T07:40:44;1.37;;;0.80;;
64682;SDS011;51107;47.652;19.016;2023-05-07T07:43:13;1.17;;;1.00;;
64682;SDS011;51107;47.652;19.016;2023-05-07T07:45:42;1.40;;;1.12;;
64682;SDS011;51107;47.652;19.016;2023-05-07T07:48:12;2.85;;;0.90;;
64682;SDS011;51107;47.652;19.016;2023-05-07T07:50:41;1.40;;;1.00;;
64682;SDS011;51107;47.652;19.016;2023-05-07T07:53:13;1.48;;;1.02;;
64682;SDS011;51107;47.652;19.016;2023-05-07T07:55:42;1.02;;;0.88;;
64682;SDS011;51107;47.652;19.016;2023-05-07T07:58:10;1.05;;;0.95;;
64682;SDS011;51107;47.652;19.016;2023-05-07T08:00:40;2.65;;;0.80;;
64682;SDS011;51107;47.652;19.016;2023-05-07T08:03:09;1.12;;;0.62;;
64682;SDS011;51107;47.652;19.016;2023-05-07T08:05:38;0.80;;;0.70;;
64682;SDS011;51107;47.652;19.016;2023-05-07T08:08:08;0.52;;;0.47;;
64682;SDS011;51107;47.652;19.016;2023-05-07T08:10:37;0.85;;;0.80;;
64682;SDS011;51107;47.652;19.016;2023-05-07T08:13:07;0.73;;;0.68;;
64682;SDS011;51107;47.652;19.016;2023-05-07T08:15:36;1.98;;;1.15;;
64682;SDS011;51107;47.652;19.016;2023-05-07T08:18:05;2.08;;;1.15;;
64682;SDS011;51107;47.652;19.016;2023-05-07T08:20:34;4.43;;;0.90;;
64682;SDS011;51107;47.652;19.016;2023-05-07T08:23:08;1.87;;;0.80;;
64682;SDS011;51107;47.652;19.016;2023-05-07T08:25:38;1.67;;;1.05;;
64682;SDS011;51107;47.652;19.016;2023-05-07T08:28:14;0.88;;;0.80;;
64682;SDS011;51107;47.652;19.016;2023-05-07T08:30:43;2.15;;;1.35;;
64682;SDS011;51107;47.652;19.016;2023-05-07T08:33:12;1.25;;;1.08;;
64682;SDS011;51107;47.652;19.016;2023-05-07T08:35:40;1.48;;;0.95;;
64682;SDS011;51107;47.652;19.016;2023-05-07T08:38:10;1.10;;;1.00;;
64682;SDS011;51107;47.652;19.016;2023-05-07T08:40:39;3.00;;;1.42;;
64682;SDS011;51107;47.652;19.016;2023-05-07T08:43:14;1.67;;;1.40;;
64682;SDS011;51107;47.652;19.016;2023-05-07T08:45:43;1.83;;;1.35;;
64682;SDS011;51107;47.652;19.016;2023-05-07T08:48:15;1.83;;;1.27;;
64682;SDS011;51107;47.652;19.016;2023-05-07T08:50:48;1.90;;;1.45;;
64682;SDS011;51107;47.652;19.016;2023-05-07T08:53:17;4.30;;;1.80;;
64682;SDS011;51107;47.652;19.016;2023-05-07T08:55:49;1.55;;;1.25;;
64682;SDS011;51107;47.652;19.016;2023-05-07T08:58:17;2.95;;;1.80;;
64682;SDS011;51107;47.652;19.016;2023-05-07T09:00:46;4.27;;;1.97;;
64682;SDS011;51107;47.652;19.016;2023-05-07T09:03:16;2.97;;;1.73;;
64682;SDS011;51107;47.652;19.016;2023-05-07T09:05:45;1.58;;;1.48;;
64682;SDS011;51107;47.652;19.016;2023-05-07T09:08:14;2.78;;;1.70;;
64682;SDS011;51107;47.652;19.016;2023-05-07T09:10:45;1.60;;;1.20;;
64682;SDS011;51107;47.652;19.016;2023-05-07T09:13:16;1.67;;;1.40;;
64682;SDS011;51107;47.652;19.016;2023-05-07T09:15:46;2.17;;;1.40;;
64682;SDS011;51107;47.652;19.016;2023-05-07T09:18:15;1.62;;;1.33;;
64682;SDS011;51107;47.652;19.016;2023-05-07T09:20:44;1.85;;;1.25;;
64682;SDS011;51107;47.652;19.016;2023-05-07T09:23:13;1.20;;;1.10;;
64682;SDS011;51107;47.652;19.016;2023-05-07T09:25:43;2.15;;;1.50;;
64682;SDS011;51107;47.652;19.016;2023-05-07T09:28:11;2.67;;;1.52;;
64682;SDS011;51107;47.652;19.016;2023-05-07T09:30:41;2.20;;;1.37;;
64682;SDS011;51107;47.652;19.016;2023-05-07T09:33:09;1.98;;;1.50;;
64682;SDS011;51107;47.652;19.016;2023-05-07T09:35:38;3.03;;;2.00;;
64682;SDS011;51107;47.652;19.016;2023-05-07T09:38:08;2.60;;;1.52;;
64682;SDS011;51107;47.652;19.016;2023-05-07T09:40:37;2.03;;;1.30;;
64682;SDS011;51107;47.652;19.016;2023-05-07T09:43:09;2.22;;;1.52;;
64682;SDS011;51107;47.652;19.016;2023-05-07T09:45:40;1.95;;;1.40;;
64682;SDS011;51107;47.652;19.016;2023-05-07T09:48:09;2.17;;;1.42;;
64682;SDS011;51107;47.652;19.016;2023-05-07T09:50:41;2.30;;;1.75;;
64682;SDS011;51107;47.652;19.016;2023-05-07T09:53:17;1.52;;;1.20;;
64682;SDS011;51107;47.652;19.016;2023-05-07T09:55:47;1.37;;;1.10;;
64682;SDS011;51107;47.652;19.016;2023-05-07T09:58:16;4.53;;;1.52;;
64682;SDS011;51107;47.652;19.016;2023-05-07T10:00:48;1.70;;;1.15;;
64682;SDS011;51107;47.652;19.016;2023-05-07T10:03:18;1.27;;;1.10;;
64682;SDS011;51107;47.652;19.016;2023-05-07T10:05:48;1.45;;;1.15;;
64682;SDS011;51107;47.652;19.016;2023-05-07T10:08:19;1.60;;;1.12;;
64682;SDS011;51107;47.652;19.016;2023-05-07T10:10:48;1.60;;;1.20;;
64682;SDS011;51107;47.652;19.016;2023-05-07T10:13:18;1.80;;;1.17;;
64682;SDS011;51107;47.652;19.016;2023-05-07T10:15:47;2.12;;;1.48;;
64682;SDS011;51107;47.652;19.016;2023-05-07T10:18:17;1.65;;;1.20;;
64682;SDS011;51107;47.652;19.016;2023-05-07T10:20:51;2.05;;;1.40;;
64682;SDS011;51107;47.652;19.016;2023-05-07T10:23:23;1.80;;;1.30;;
64682;SDS011;51107;47.652;19.016;2023-05-07T10:25:53;1.65;;;1.25;;
64682;SDS011;51107;47.652;19.016;2023-05-07T10:28:29;0.93;;;0.88;;
64682;SDS011;51107;47.652;19.016;2023-05-07T10:31:07;2.40;;;1.63;;
64682;SDS011;51107;47.652;19.016;2023-05-07T10:34:07;1.95;;;1.48;;
64682;SDS011;51107;47.652;19.016;2023-05-07T10:36:40;3.87;;;1.30;;
64682;SDS011;51107;47.652;19.016;2023-05-07T10:39:10;2.50;;;1.58;;
64682;SDS011;51107;47.652;19.016;2023-05-07T10:41:39;2.30;;;1.60;;
64682;SDS011;51107;47.652;19.016;2023-05-07T10:44:08;1.30;;;1.20;;
64682;SDS011;51107;47.652;19.016;2023-05-07T10:46:36;2.05;;;1.37;;
64682;SDS011;51107;47.652;19.016;2023-05-07T10:49:06;2.45;;;1.30;;
64682;SDS011;51107;47.652;19.016;2023-05-07T10:51:35;2.50;;;1.23;;
64682;SDS011;51107;47.652;19.016;2023-05-07T10:56:43;2.10;;;1.12;;
64682;SDS011;51107;47.652;19.016;2023-05-07T11:02:02;2.33;;;1.10;;
64682;SDS011;51107;47.652;19.016;2023-05-07T11:04:32;2.72;;;1.10;;
64682;SDS011;51107;47.652;19.016;2023-05-07T11:09:55;2.78;;;1.10;;
64682;SDS011;51107;47.652;19.016;2023-05-07T11:15:09;1.10;;;0.73;;
64682;SDS011;51107;47.652;19.016;2023-05-07T11:17:55;2.33;;;1.10;;
64682;SDS011;51107;47.652;19.016;2023-05-07T11:26:07;1.33;;;1.10;;
64682;SDS011;51107;47.652;19.016;2023-05-07T11:31:08;2.12;;;1.00;;
64682;SDS011;51107;47.652;19.016;2023-05-07T11:33:37;0.98;;;0.90;;
64682;SDS011;51107;47.652;19.016;2023-05-07T11:36:07;0.80;;;0.80;;
64682;SDS011;51107;47.652;19.016;2023-05-07T11:38:37;2.67;;;0.93;;
64682;SDS011;51107;47.652;19.016;2023-05-07T11:41:06;1.77;;;1.17;;
64682;SDS011;51107;47.652;19.016;2023-05-07T11:43:36;1.30;;;1.00;;
64682;SDS011;51107;47.652;19.016;2023-05-07T11:46:05;1.10;;;0.98;;
64682;SDS011;51107;47.652;19.016;2023-05-07T11:48:36;1.52;;;1.30;;
64682;SDS011;51107;47.652;19.016;2023-05-07T11:51:05;1.17;;;0.95;;
64682;SDS011;51107;47.652;19.016;2023-05-07T11:53:37;1.85;;;1.10;;
64682;SDS011;51107;47.652;19.016;2023-05-07T11:56:10;1.30;;;1.10;;
64682;SDS011;51107;47.652;19.016;2023-05-07T11:58:41;1.85;;;1.45;;
64682;SDS011;51107;47.652;19.016;2023-05-07T12:01:11;2.80;;;1.17;;
64682;SDS011;51107;47.652;19.016;2023-05-07T12:03:42;1.52;;;1.30;;
64682;SDS011;51107;47.652;19.016;2023-05-07T12:06:13;1.85;;;1.48;;
64682;SDS011;51107;47.652;19.016;2023-05-07T12:08:44;2.03;;;1.20;;
64682;SDS011;51107;47.652;19.016;2023-05-07T12:11:16;1.90;;;1.33;;
64682;SDS011;51107;47.652;19.016;2023-05-07T12:13:53;1.05;;;0.82;;
64682;SDS011;51107;47.652;19.016;2023-05-07T12:16:26;1.30;;;1.12;;
64682;SDS011;51107;47.652;19.016;2023-05-07T12:18:56;1.37;;;1.20;;
64682;SDS011;51107;47.652;19.016;2023-05-07T12:21:27;1.45;;;1.30;;
64682;SDS011;51107;47.652;19.016;2023-05-07T12:23:56;2.83;;;1.15;;
64682;SDS011;51107;47.652;19.016;2023-05-07T12:26:24;1.45;;;1.02;;
64682;SDS011;51107;47.652;19.016;2023-05-07T12:28:52;0.85;;;0.80;;
64682;SDS011;51107;47.652;19.016;2023-05-07T12:31:21;2.10;;;1.00;;
64682;SDS011;51107;47.652;19.016;2023-05-07T12:33:50;1.05;;;0.88;;
64682;SDS011;51107;47.652;19.016;2023-05-07T12:36:18;0.73;;;0.73;;
64682;SDS011;51107;47.652;19.016;2023-05-07T12:38:50;1.45;;;1.23;;
64682;SDS011;51107;47.652;19.016;2023-05-07T12:41:18;8.07;;;1.60;;
64682;SDS011;51107;47.652;19.016;2023-05-07T12:43:46;1.48;;;1.02;;
64682;SDS011;51107;47.652;19.016;2023-05-07T12:46:15;1.45;;;1.02;;
64682;SDS011;51107;47.652;19.016;2023-05-07T12:48:46;1.20;;;0.90;;
64682;SDS011;51107;47.652;19.016;2023-05-07T12:51:15;1.25;;;1.05;;
64682;SDS011;51107;47.652;19.016;2023-05-07T12:53:43;1.33;;;1.08;;
64682;SDS011;51107;47.652;19.016;2023-05-07T12:56:12;1.23;;;0.70;;
64682;SDS011;51107;47.652;19.016;2023-05-07T12:58:44;0.60;;;0.60;;
64682;SDS011;51107;47.652;19.016;2023-05-07T13:01:13;1.98;;;1.25;;
64682;SDS011;51107;47.652;19.016;2023-05-07T13:03:50;1.17;;;1.08;;
64682;SDS011;51107;47.652;19.016;2023-05-07T13:06:19;3.00;;;1.00;;
64682;SDS011;51107;47.652;19.016;2023-05-07T13:08:47;2.08;;;1.10;;
64682;SDS011;51107;47.652;19.016;2023-05-07T13:11:16;0.85;;;0.77;;
64682;SDS011;51107;47.652;19.016;2023-05-07T13:13:45;1.33;;;1.08;;
64682;SDS011;51107;47.652;19.016;2023-05-07T13:16:13;1.48;;;1.30;;
64682;SDS011;51107;47.652;19.016;2023-05-07T13:18:42;1.55;;;1.00;;
64682;SDS011;51107;47.652;19.016;2023-05-07T13:21:13;0.80;;;0.70;;
64682;SDS011;51107;47.652;19.016;2023-05-07T13:23:45;1.27;;;0.93;;
64682;SDS011;51107;47.652;19.016;2023-05-07T13:26:14;1.20;;;1.10;;
64682;SDS011;51107;47.652;19.016;2023-05-07T13:29:00;1.05;;;0.95;;
64682;SDS011;51107;47.652;19.016;2023-05-07T13:31:29;1.85;;;1.08;;
64682;SDS011;51107;47.652;19.016;2023-05-07T13:33:58;1.83;;;1.40;;
64682;SDS011;51107;47.652;19.016;2023-05-07T13:36:27;1.45;;;1.10;;
64682;SDS011;51107;47.652;19.016;2023-05-07T13:38:56;1.45;;;1.10;;
64682;SDS011;51107;47.652;19.016;2023-05-07T13:41:27;3.05;;;1.35;;
64682;SDS011;51107;47.652;19.016;2023-05-07T13:43:56;1.17;;;1.00;;
64682;SDS011;51107;47.652;19.016;2023-05-07T13:46:25;1.42;;;1.20;;
64682;SDS011;51107;47.652;19.016;2023-05-07T13:48:53;1.33;;;0.90;;
64682;SDS011;51107;47.652;19.016;2023-05-07T13:51:23;1.30;;;0.90;;
64682;SDS011;51107;47.652;19.016;2023-05-07T13:53:51;1.42;;;1.25;;
64682;SDS011;51107;47.652;19.016;2023-05-07T13:56:23;2.87;;;1.20;;
64682;SDS011;51107;47.652;19.016;2023-05-07T13:58:51;3.05;;;1.10;;
64682;SDS011;51107;47.652;19.016;2023-05-07T14:01:27;0.98;;;0.80;;
64682;SDS011;51107;47.652;19.016;2023-05-07T14:03:57;1.02;;;0.90;;
64682;SDS011;51107;47.652;19.016;2023-05-07T14:06:27;5.82;;;1.05;;
64682;SDS011;51107;47.652;19.016;2023-05-07T14:08:55;0.93;;;0.80;;
64682;SDS011;51107;47.652;19.016;2023-05-07T14:11:26;1.08;;;0.95;;
64682;SDS011;51107;47.652;19.016;2023-05-07T14:13:54;4.68;;;1.20;;
64682;SDS011;51107;47.652;19.016;2023-05-07T14:16:24;0.80;;;0.80;;
64682;SDS011;51107;47.652;19.016;2023-05-07T14:18:54;2.10;;;0.98;;
64682;SDS011;51107;47.652;19.016;2023-05-07T14:21:25;1.77;;;1.25;;
64682;SDS011;51107;47.652;19.016;2023-05-07T14:23:54;1.62;;;1.00;;
64682;SDS011;51107;47.652;19.016;2023-05-07T14:26:24;1.42;;;1.02;;
64682;SDS011;51107;47.652;19.016;2023-05-07T14:28:55;0.80;;;0.80;;
64682;SDS011;51107;47.652;19.016;2023-05-07T14:31:25;5.18;;;1.05;;
64682;SDS011;51107;47.652;19.016;2023-05-07T14:33:53;1.58;;;0.90;;
64682;SDS011;51107;47.652;19.016;2023-05-07T14:36:22;1.40;;;0.95;;
64682;SDS011;51107;47.652;19.016;2023-05-07T14:38:53;0.85;;;0.82;;
64682;SDS011;51107;47.652;19.016;2023-05-07T14:41:22;1.55;;;0.80;;
64682;SDS011;51107;47.652;19.016;2023-05-07T14:43:51;1.27;;;0.88;;
64682;SDS011;51107;47.652;19.016;2023-05-07T14:46:20;1.20;;;1.00;;
64682;SDS011;51107;47.652;19.016;2023-05-07T14:48:48;1.30;;;1.00;;
64682;SDS011;51107;47.652;19.016;2023-05-07T14:51:16;1.48;;;0.90;;
64682;SDS011;51107;47.652;19.016;2023-05-07T14:53:45;2.00;;;1.00;;
64682;SDS011;51107;47.652;19.016;2023-05-07T14:56:14;1.35;;;0.90;;
64682;SDS011;51107;47.652;19.016;2023-05-07T14:58:42;1.52;;;1.05;;
64682;SDS011;51107;47.652;19.016;2023-05-07T15:01:11;2.20;;;1.48;;
64682;SDS011;51107;47.652;19.016;2023-05-07T15:03:40;1.67;;;1.05;;
64682;SDS011;51107;47.652;19.016;2023-05-07T15:06:08;5.47;;;1.17;;
64682;SDS011;51107;47.652;19.016;2023-05-07T15:08:36;1.37;;;0.98;;